createdAt,value
2017-03-29T00:00:12.332Z,1035.63
2017-03-29T00:01:12.324Z,1035.67
2017-03-29T00:02:12.314Z,1035.71
2017-03-29T00:03:12.306Z,1035.71
2017-03-29T00:04:12.297Z,1035.71
2017-03-29T00:05:12.289Z,1035.79
2017-03-29T00:06:12.281Z,1035.75
2017-03-29T00:07:12.272Z,1035.75
2017-03-29T00:08:12.263Z,1035.76
2017-03-29T00:09:12.255Z,1035.8
2017-03-29T00:10:12.246Z,1035.81
2017-03-29T00:11:12.237Z,1035.81
2017-03-29T00:12:12.229Z,1035.8
2017-03-29T00:13:12.220Z,1035.83
2017-03-29T00:14:12.211Z,1035.83
2017-03-29T00:15:12.203Z,1035.86
2017-03-29T00:16:12.194Z,1035.87
2017-03-29T00:17:12.185Z,1035.91
2017-03-29T00:18:12.176Z,1035.86
2017-03-29T00:19:12.168Z,1035.86
2017-03-29T00:20:12.160Z,1035.89
2017-03-29T00:21:12.150Z,1035.88
2017-03-29T00:22:12.149Z,1035.93
2017-03-29T00:23:12.133Z,1035.93
2017-03-29T00:24:12.124Z,1035.94
2017-03-29T00:25:12.115Z,1035.96
2017-03-29T00:26:12.110Z,1035.96
2017-03-29T00:27:12.100Z,1035.94
2017-03-29T00:28:12.088Z,1035.98
2017-03-29T00:29:12.080Z,1035.95
2017-03-29T00:30:12.071Z,1035.95
2017-03-29T00:31:12.063Z,1035.99
2017-03-29T00:32:12.053Z,1035.97
2017-03-29T00:33:12.044Z,1036.01
2017-03-29T00:34:12.036Z,1036
2017-03-29T00:35:12.026Z,1036.04
2017-03-29T00:36:12.018Z,1036.05
2017-03-29T00:37:12.009Z,1036
2017-03-29T00:38:12.000Z,1036
2017-03-29T00:39:11.990Z,1036.02
2017-03-29T00:40:11.982Z,1036.06
2017-03-29T00:41:11.974Z,1036.06
2017-03-29T00:42:11.965Z,1036.08
2017-03-29T00:43:11.954Z,1036.09
2017-03-29T00:44:11.947Z,1036.11
2017-03-29T00:45:11.938Z,1036.09
2017-03-29T00:46:11.928Z,1036.14
2017-03-29T00:47:11.919Z,1036.15
2017-03-29T00:48:11.910Z,1036.18
2017-03-29T00:49:11.901Z,1036.15
2017-03-29T00:50:11.891Z,1036.14
2017-03-29T00:51:11.883Z,1036.11
2017-03-29T00:52:11.875Z,1036.13
2017-03-29T00:53:11.865Z,1036.12
2017-03-29T00:54:11.856Z,1036.11
2017-03-29T00:55:11.848Z,1036.09
2017-03-29T00:56:11.838Z,1036.13
2017-03-29T00:57:11.829Z,1036.13
2017-03-29T00:58:11.820Z,1036.13
2017-03-29T00:59:11.811Z,1036.17
2017-03-29T01:00:11.801Z,1036.14
2017-03-29T01:01:11.793Z,1036.12
2017-03-29T01:02:11.784Z,1036.14
2017-03-29T01:03:11.775Z,1036.16
2017-03-29T01:04:11.765Z,1036.15
2017-03-29T01:05:11.756Z,1036.14
2017-03-29T01:06:11.747Z,1036.15
2017-03-29T01:07:11.739Z,1036.16
2017-03-29T01:08:11.728Z,1036.16
2017-03-29T01:09:11.720Z,1036.17
2017-03-29T01:10:11.710Z,1036.16
2017-03-29T01:11:11.702Z,1036.2
2017-03-29T01:12:11.692Z,1036.24
2017-03-29T01:13:11.683Z,1036.21
2017-03-29T01:14:11.674Z,1036.19
2017-03-29T01:15:11.665Z,1036.18
2017-03-29T01:16:11.655Z,1036.23
2017-03-29T01:17:11.648Z,1036.23
2017-03-29T01:18:11.637Z,1036.21
2017-03-29T01:19:11.628Z,1036.23
2017-03-29T01:20:11.618Z,1036.22
2017-03-29T01:21:11.610Z,1036.21
2017-03-29T01:22:11.600Z,1036.21
2017-03-29T01:23:11.590Z,1036.19
2017-03-29T01:24:11.581Z,1036.16
2017-03-29T01:25:11.572Z,1036.21
2017-03-29T01:26:11.562Z,1036.17
2017-03-29T01:27:11.553Z,1036.11
2017-03-29T01:28:11.544Z,1036.16
2017-03-29T01:29:11.535Z,1036.12
2017-03-29T01:30:11.525Z,1036.13
2017-03-29T01:31:11.516Z,1036.12
2017-03-29T01:32:11.507Z,1036.12
2017-03-29T01:33:11.498Z,1036.11
2017-03-29T01:34:11.488Z,1036.1
2017-03-29T01:35:11.479Z,1036.07
2017-03-29T01:36:11.469Z,1036.07
2017-03-29T01:37:11.460Z,1036.08
2017-03-29T01:38:11.450Z,1036.09
2017-03-29T01:39:11.441Z,1036.09
2017-03-29T01:40:11.432Z,1036.12
2017-03-29T01:41:11.422Z,1036.12
2017-03-29T01:42:11.413Z,1036.15
2017-03-29T01:43:11.404Z,1036.13
2017-03-29T01:44:11.394Z,1036.14
2017-03-29T01:45:11.384Z,1036.17
2017-03-29T01:46:11.376Z,1036.14
2017-03-29T01:47:11.366Z,1036.13
2017-03-29T01:48:11.356Z,1036.12
2017-03-29T01:49:11.372Z,1036.12
2017-03-29T01:50:11.338Z,1036.12
2017-03-29T01:51:11.328Z,1036.14
2017-03-29T01:52:11.318Z,1036.17
2017-03-29T01:53:11.309Z,1036.17
2017-03-29T01:54:11.299Z,1036.16
2017-03-29T01:55:11.290Z,1036.16
2017-03-29T01:56:11.281Z,1036.13
2017-03-29T01:57:11.271Z,1036.15
2017-03-29T01:58:11.263Z,1036.1
2017-03-29T01:59:11.252Z,1036.09
2017-03-29T02:00:11.242Z,1036.05
2017-03-29T02:01:11.233Z,1036.04
2017-03-29T02:02:11.224Z,1036.06
2017-03-29T02:03:11.214Z,1036.08
2017-03-29T02:04:11.204Z,1036.05
2017-03-29T02:05:11.195Z,1036.03
2017-03-29T02:06:11.185Z,1036.01
2017-03-29T02:07:11.175Z,1036.04
2017-03-29T02:08:11.166Z,1036.06
2017-03-29T02:09:11.160Z,1036.08
2017-03-29T02:10:11.146Z,1036.03
2017-03-29T02:11:11.137Z,1036.1
2017-03-29T02:12:11.128Z,1036.05
2017-03-29T02:13:11.118Z,1036.11
2017-03-29T02:14:11.109Z,1036.12
2017-03-29T02:15:11.100Z,1036.08
2017-03-29T02:16:11.089Z,1036.08
2017-03-29T02:17:11.080Z,1036.06
2017-03-29T02:18:11.070Z,1036.08
2017-03-29T02:19:11.060Z,1036.01
2017-03-29T02:20:11.052Z,1035.99
2017-03-29T02:21:11.041Z,1036.05
2017-03-29T02:22:11.031Z,1036.02
2017-03-29T02:23:11.022Z,1036.03
2017-03-29T02:24:11.013Z,1035.99
2017-03-29T02:25:11.002Z,1036.03
2017-03-29T02:26:10.994Z,1036.02
2017-03-29T02:27:10.984Z,1036.04
2017-03-29T02:28:10.975Z,1036.08
2017-03-29T02:29:10.966Z,1036.1
2017-03-29T02:30:10.956Z,1036.13
2017-03-29T02:31:10.947Z,1036.14
2017-03-29T02:32:10.936Z,1036.18
2017-03-29T02:33:10.931Z,1036.19
2017-03-29T02:34:10.917Z,1036.21
2017-03-29T02:35:10.908Z,1036.16
2017-03-29T02:36:10.898Z,1036.19
2017-03-29T02:37:10.889Z,1036.2
2017-03-29T02:38:10.879Z,1036.16
2017-03-29T02:39:10.868Z,1036.21
2017-03-29T02:40:10.859Z,1036.23
2017-03-29T02:41:10.850Z,1036.23
2017-03-29T02:42:10.840Z,1036.2
2017-03-29T02:43:10.830Z,1036.18
2017-03-29T02:44:10.821Z,1036.21
2017-03-29T02:45:10.811Z,1036.18
2017-03-29T02:46:10.802Z,1036.16
2017-03-29T02:47:10.792Z,1036.13
2017-03-29T02:48:10.782Z,1036.13
2017-03-29T02:49:10.772Z,1036.14
2017-03-29T02:50:10.762Z,1036.15
2017-03-29T02:51:10.753Z,1036.12
2017-03-29T02:52:10.743Z,1036.12
2017-03-29T02:53:10.734Z,1036.14
2017-03-29T02:54:10.723Z,1036.11
2017-03-29T02:55:10.714Z,1036.12
2017-03-29T02:56:10.705Z,1036.13
2017-03-29T02:57:10.697Z,1036.09
2017-03-29T02:58:10.684Z,1036.12
2017-03-29T02:59:10.676Z,1036.13
2017-03-29T03:00:10.666Z,1036.19
2017-03-29T03:01:10.655Z,1036.15
2017-03-29T03:02:10.647Z,1036.16
2017-03-29T03:03:10.637Z,1036.16
2017-03-29T03:04:10.628Z,1036.15
2017-03-29T03:05:10.617Z,1036.1
2017-03-29T03:06:10.608Z,1036.11
2017-03-29T03:07:10.598Z,1036.09
2017-03-29T03:08:10.588Z,1036.09
2017-03-29T03:09:10.578Z,1036.09
2017-03-29T03:10:10.568Z,1036.09
2017-03-29T03:11:10.560Z,1036.01
2017-03-29T03:12:10.549Z,1036.07
2017-03-29T03:13:10.539Z,1036.07
2017-03-29T03:14:10.530Z,1036.09
2017-03-29T03:15:10.521Z,1036.02
2017-03-29T03:16:10.511Z,1036.01
2017-03-29T03:17:10.500Z,1036.02
2017-03-29T03:18:10.490Z,1036.05
2017-03-29T03:19:10.481Z,1036.02
2017-03-29T03:20:10.471Z,1035.99
2017-03-29T03:21:10.461Z,1035.98
2017-03-29T03:22:10.452Z,1035.96
2017-03-29T03:23:10.441Z,1036.03
2017-03-29T03:24:10.431Z,1036
2017-03-29T03:25:10.422Z,1036
2017-03-29T03:26:10.412Z,1036.01
2017-03-29T03:27:10.402Z,1036.02
2017-03-29T03:28:10.392Z,1035.98
2017-03-29T03:29:10.383Z,1036
2017-03-29T03:30:10.374Z,1035.95
2017-03-29T03:31:10.363Z,1035.98
2017-03-29T03:32:10.353Z,1036
2017-03-29T03:33:10.344Z,1036.02
2017-03-29T03:34:10.333Z,1036.04
2017-03-29T03:35:10.324Z,1036.03
2017-03-29T03:36:10.314Z,1036.03
2017-03-29T03:37:10.304Z,1036
2017-03-29T03:38:10.294Z,1035.98
2017-03-29T03:39:10.284Z,1036.01
2017-03-29T03:40:10.275Z,1035.99
2017-03-29T03:41:10.265Z,1035.98
2017-03-29T03:42:10.255Z,1036.01
2017-03-29T03:43:10.245Z,1036
2017-03-29T03:44:10.235Z,1035.99
2017-03-29T03:45:10.224Z,1035.97
2017-03-29T03:46:10.215Z,1036
2017-03-29T03:47:10.206Z,1035.98
2017-03-29T03:48:10.196Z,1036
2017-03-29T03:49:10.191Z,1035.99
2017-03-29T03:50:10.176Z,1035.97
2017-03-29T03:51:10.166Z,1035.98
2017-03-29T03:52:10.156Z,1036
2017-03-29T03:53:10.146Z,1036.01
2017-03-29T03:54:10.137Z,1035.97
2017-03-29T03:55:10.127Z,1036.03
2017-03-29T03:56:10.116Z,1036.04
2017-03-29T03:57:10.107Z,1036.02
2017-03-29T03:58:10.097Z,1036.04
2017-03-29T03:59:10.088Z,1035.99
2017-03-29T04:00:10.077Z,1035.99
2017-03-29T04:01:10.067Z,1036.03
2017-03-29T04:02:10.057Z,1035.99
2017-03-29T04:03:10.048Z,1036.01
2017-03-29T04:04:10.039Z,1036.03
2017-03-29T04:05:10.029Z,1036
2017-03-29T04:06:10.022Z,1036.02
2017-03-29T04:07:10.009Z,1036.03
2017-03-29T04:08:09.999Z,1036.04
2017-03-29T04:09:09.990Z,1036.06
2017-03-29T04:10:09.980Z,1036.06
2017-03-29T04:11:09.969Z,1035.99
2017-03-29T04:12:09.960Z,1036.02
2017-03-29T04:13:09.950Z,1035.98
2017-03-29T04:14:09.938Z,1035.98
2017-03-29T04:15:09.930Z,1035.96
2017-03-29T04:16:09.920Z,1035.99
2017-03-29T04:17:09.910Z,1035.96
2017-03-29T04:18:09.901Z,1035.99
2017-03-29T04:19:09.890Z,1035.94
2017-03-29T04:20:09.881Z,1035.97
2017-03-29T04:21:09.871Z,1035.96
2017-03-29T04:22:09.860Z,1035.91
2017-03-29T04:23:09.851Z,1035.96
2017-03-29T04:24:09.841Z,1035.95
2017-03-29T04:25:09.831Z,1035.95
2017-03-29T04:26:09.821Z,1035.94
2017-03-29T04:27:09.811Z,1036.01
2017-03-29T04:28:09.802Z,1036.01
2017-03-29T04:29:09.792Z,1036.03
2017-03-29T04:30:09.781Z,1036.06
2017-03-29T04:31:09.771Z,1035.99
2017-03-29T04:32:09.763Z,1035.98
2017-03-29T04:33:09.752Z,1035.96
2017-03-29T04:34:09.742Z,1035.98
2017-03-29T04:35:09.733Z,1036.01
2017-03-29T04:36:09.724Z,1036
2017-03-29T04:37:09.713Z,1036
2017-03-29T04:38:09.703Z,1036.02
2017-03-29T04:39:09.694Z,1036.01
2017-03-29T04:40:09.684Z,1035.99
2017-03-29T04:41:09.674Z,1036.02
2017-03-29T04:42:09.664Z,1035.95
2017-03-29T04:43:09.655Z,1035.89
2017-03-29T04:44:09.645Z,1035.9
2017-03-29T04:45:09.635Z,1035.84
2017-03-29T04:46:09.626Z,1035.79
2017-03-29T04:47:09.615Z,1035.73
2017-03-29T04:48:09.605Z,1035.69
2017-03-29T04:49:09.596Z,1035.67
2017-03-29T04:50:09.587Z,1035.69
2017-03-29T04:51:09.575Z,1035.68
2017-03-29T04:52:09.567Z,1035.66
2017-03-29T04:53:09.558Z,1035.64
2017-03-29T04:54:09.548Z,1035.61
2017-03-29T04:55:09.538Z,1035.63
2017-03-29T04:56:09.530Z,1035.59
2017-03-29T04:57:09.520Z,1035.58
2017-03-29T04:58:09.509Z,1035.53
2017-03-29T04:59:09.500Z,1035.55
2017-03-29T05:00:09.491Z,1035.56
2017-03-29T05:01:09.482Z,1035.57
2017-03-29T05:02:09.472Z,1035.49
2017-03-29T05:03:09.463Z,1035.44
2017-03-29T05:04:09.453Z,1035.33
2017-03-29T05:05:09.444Z,1035.27
2017-03-29T05:06:09.434Z,1035.19
2017-03-29T05:07:09.429Z,1035.15
2017-03-29T05:08:09.415Z,1035.14
2017-03-29T05:09:09.406Z,1035.04
2017-03-29T05:10:09.396Z,1034.98
2017-03-29T05:11:09.388Z,1034.95
2017-03-29T05:12:09.383Z,1034.9
2017-03-29T05:13:09.369Z,1034.82
2017-03-29T05:14:09.360Z,1034.75
2017-03-29T05:15:09.352Z,1034.71
2017-03-29T05:16:09.342Z,1034.7
2017-03-29T05:17:09.333Z,1034.69
2017-03-29T05:18:09.324Z,1034.66
2017-03-29T05:19:09.315Z,1034.68
2017-03-29T05:20:09.306Z,1034.68
2017-03-29T05:21:09.297Z,1034.73
2017-03-29T05:22:09.289Z,1034.78
2017-03-29T05:23:09.280Z,1034.78
2017-03-29T05:24:09.271Z,1034.72
2017-03-29T05:25:09.262Z,1034.79
2017-03-29T05:26:09.254Z,1034.79
2017-03-29T05:27:09.245Z,1034.81
2017-03-29T05:28:09.236Z,1034.78
2017-03-29T05:29:09.228Z,1034.73
2017-03-29T05:30:09.220Z,1034.7
2017-03-29T05:31:09.211Z,1034.78
2017-03-29T05:32:09.202Z,1034.68
2017-03-29T05:33:09.194Z,1034.66
2017-03-29T05:34:09.186Z,1034.64
2017-03-29T05:35:09.176Z,1034.57
2017-03-29T05:36:09.168Z,1034.57
2017-03-29T05:37:09.161Z,1034.57
2017-03-29T05:38:09.152Z,1034.56
2017-03-29T05:39:09.144Z,1034.55
2017-03-29T05:40:09.136Z,1034.52
2017-03-29T05:41:09.129Z,1034.46
2017-03-29T05:42:09.120Z,1034.5
2017-03-29T05:43:09.111Z,1034.46
2017-03-29T05:44:09.103Z,1034.45
2017-03-29T05:45:09.096Z,1034.39
2017-03-29T05:46:09.087Z,1034.39
2017-03-29T05:47:09.079Z,1034.43
2017-03-29T05:48:09.071Z,1034.42
2017-03-29T05:49:09.063Z,1034.43
2017-03-29T05:50:09.054Z,1034.42
2017-03-29T05:51:09.047Z,1034.4
2017-03-29T05:52:09.039Z,1034.39
2017-03-29T05:53:09.031Z,1034.36
2017-03-29T05:54:09.022Z,1034.32
2017-03-29T05:55:09.015Z,1034.31
2017-03-29T05:56:09.008Z,1034.24
2017-03-29T05:57:08.999Z,1034.23
2017-03-29T05:58:08.992Z,1034.24
2017-03-29T05:59:08.984Z,1034.17
2017-03-29T06:00:08.976Z,1034.21
2017-03-29T06:01:08.969Z,1034.17
2017-03-29T06:02:08.962Z,1034.16
2017-03-29T06:03:08.954Z,1034.12
2017-03-29T06:04:08.946Z,1034.13
2017-03-29T06:05:08.939Z,1034.12
2017-03-29T06:06:08.931Z,1034.16
2017-03-29T06:07:08.924Z,1034.12
2017-03-29T06:08:08.916Z,1034.14
2017-03-29T06:09:08.908Z,1034.09
2017-03-29T06:10:08.901Z,1034.04
2017-03-29T06:11:08.894Z,1034.04
2017-03-29T06:12:08.886Z,1034.02
2017-03-29T06:13:08.879Z,1033.95
2017-03-29T06:14:08.872Z,1033.87
2017-03-29T06:15:08.864Z,1033.84
2017-03-29T06:16:08.857Z,1033.82
2017-03-29T06:17:08.851Z,1033.77
2017-03-29T06:18:08.844Z,1033.74
2017-03-29T06:19:08.836Z,1033.72
2017-03-29T06:20:08.829Z,1033.67
2017-03-29T06:21:08.822Z,1033.66
2017-03-29T06:22:08.815Z,1033.61
2017-03-29T06:23:08.809Z,1033.53
2017-03-29T06:24:08.801Z,1033.48
2017-03-29T06:25:08.795Z,1033.41
2017-03-29T06:26:08.787Z,1033.41
2017-03-29T06:27:08.780Z,1033.39
2017-03-29T06:28:08.774Z,1033.33
2017-03-29T06:29:08.767Z,1033.29
2017-03-29T06:30:08.760Z,1033.22
2017-03-29T06:31:08.754Z,1033.22
2017-03-29T06:32:08.747Z,1033.21
2017-03-29T06:33:08.741Z,1033.16
2017-03-29T06:34:08.734Z,1033.1
2017-03-29T06:35:08.729Z,1033.05
2017-03-29T06:36:08.722Z,1033
2017-03-29T06:37:08.716Z,1032.96
2017-03-29T06:38:08.709Z,1032.9
2017-03-29T06:39:08.704Z,1032.91
2017-03-29T06:40:08.697Z,1032.82
2017-03-29T06:41:08.690Z,1032.78
2017-03-29T06:42:08.686Z,1032.77
2017-03-29T06:43:08.678Z,1032.83
2017-03-29T06:44:08.672Z,1032.85
2017-03-29T06:45:08.667Z,1032.84
2017-03-29T06:46:08.659Z,1032.88
2017-03-29T06:47:08.655Z,1032.86
2017-03-29T06:48:08.649Z,1032.88
2017-03-29T06:49:08.643Z,1032.97
2017-03-29T06:50:08.638Z,1032.75
2017-03-29T06:51:08.632Z,1032.39
2017-03-29T06:52:08.625Z,1031.72
2017-03-29T06:53:08.620Z,1031.21
2017-03-29T06:54:08.615Z,1030.76
2017-03-29T06:55:09.217Z,1030.39
2017-03-29T06:56:08.605Z,1030.04
2017-03-29T06:57:09.206Z,1029.62
2017-03-29T06:58:08.594Z,1029.25
2017-03-29T06:59:08.592Z,1028.99
2017-03-29T07:00:08.585Z,1028.78
2017-03-29T07:01:08.582Z,1028.6
2017-03-29T07:02:08.579Z,1028.37
2017-03-29T07:03:08.575Z,1028.17
2017-03-29T07:04:08.619Z,1027.96
2017-03-29T07:05:08.598Z,1027.74
2017-03-29T07:06:08.567Z,1027.58
2017-03-29T07:07:08.567Z,1027.38
2017-03-29T07:08:08.566Z,1027.23
2017-03-29T07:09:08.565Z,1027.09
2017-03-29T07:10:08.564Z,1027.03
2017-03-29T07:11:08.567Z,1026.87
2017-03-29T07:12:08.566Z,1026.95
2017-03-29T07:13:08.568Z,1026.84
2017-03-29T07:14:08.569Z,1026.78
2017-03-29T07:15:08.571Z,1026.68
2017-03-29T07:16:08.923Z,1026.56
2017-03-29T07:17:08.574Z,1026.49
2017-03-29T07:18:08.578Z,1026.32
2017-03-29T07:19:08.582Z,1026.22
2017-03-29T07:20:08.585Z,1026.09
2017-03-29T07:21:08.589Z,1025.72
2017-03-29T07:22:08.593Z,1025.85
2017-03-29T07:23:08.598Z,1026.33
2017-03-29T07:24:08.602Z,1026.52
2017-03-29T07:25:08.609Z,1026.62
2017-03-29T07:26:08.614Z,1026.83
2017-03-29T07:27:08.620Z,1026.42
2017-03-29T07:28:08.626Z,1025.89
2017-03-29T07:29:08.632Z,1026
2017-03-29T07:30:08.637Z,1025.9
2017-03-29T07:31:08.647Z,1026.46
2017-03-29T07:32:08.650Z,1026.51
2017-03-29T07:33:08.656Z,1026.23
2017-03-29T07:34:08.663Z,1026.38
2017-03-29T07:35:08.670Z,1026.05
2017-03-29T07:36:08.676Z,1026.36
2017-03-29T07:37:08.683Z,1026.44
2017-03-29T07:38:08.691Z,1026.78
2017-03-29T07:39:08.695Z,1026.68
2017-03-29T07:40:08.707Z,1027.03
2017-03-29T07:41:08.709Z,1027.18
2017-03-29T07:42:08.720Z,1027.46
2017-03-29T07:43:08.722Z,1027.69
2017-03-29T07:44:08.728Z,1027.93
2017-03-29T07:45:08.734Z,1028.05
2017-03-29T07:46:08.739Z,1028.16
2017-03-29T07:47:08.745Z,1028.13
2017-03-29T07:48:08.751Z,1028.23
2017-03-29T07:49:08.756Z,1028.35
2017-03-29T07:50:08.761Z,1028.37
2017-03-29T07:51:08.766Z,1028.32
2017-03-29T07:52:08.771Z,1028.36
2017-03-29T07:53:08.777Z,1028.25
2017-03-29T07:54:08.781Z,1027.6
2017-03-29T07:55:08.786Z,1027.39
2017-03-29T07:56:08.792Z,1027.08
2017-03-29T07:57:08.796Z,1027.1
2017-03-29T07:58:08.801Z,1027.4
2017-03-29T07:59:08.806Z,1027.67
2017-03-29T08:00:08.812Z,1027.96
2017-03-29T08:01:08.815Z,1028.04
2017-03-29T08:02:08.820Z,1028.08
2017-03-29T08:03:08.825Z,1027.81
2017-03-29T08:04:08.830Z,1027.7
2017-03-29T08:05:08.835Z,1027.33
2017-03-29T08:06:08.839Z,1027.27
2017-03-29T08:07:08.844Z,1027.04
2017-03-29T08:08:08.848Z,1027.06
2017-03-29T08:09:08.854Z,1027.16
2017-03-29T08:10:08.858Z,1027.27
2017-03-29T08:11:08.865Z,1027.39
2017-03-29T08:12:08.868Z,1027.19
2017-03-29T08:13:08.873Z,1027.32
2017-03-29T08:14:08.878Z,1027.56
2017-03-29T08:15:08.884Z,1027.88
2017-03-29T08:16:08.888Z,1028.19
2017-03-29T08:17:08.894Z,1028.46
2017-03-29T08:18:08.898Z,1028.67
2017-03-29T08:19:08.902Z,1028.84
2017-03-29T08:20:08.906Z,1028.97
2017-03-29T08:21:08.911Z,1029.11
2017-03-29T08:22:08.940Z,1029.11
2017-03-29T08:23:08.919Z,1029.33
2017-03-29T08:24:08.923Z,1029.39
2017-03-29T08:25:08.927Z,1029.5
2017-03-29T08:26:08.931Z,1029.54
2017-03-29T08:27:08.933Z,1029.5
2017-03-29T08:28:08.937Z,1029.76
2017-03-29T08:29:08.940Z,1029.83
2017-03-29T08:30:08.942Z,1029.86
2017-03-29T08:31:08.945Z,1030.01
2017-03-29T08:32:08.948Z,1030.18
2017-03-29T08:33:08.952Z,1030.22
2017-03-29T08:34:08.954Z,1030.31
2017-03-29T08:35:08.956Z,1030.35
2017-03-29T08:36:08.958Z,1030.46
2017-03-29T08:37:08.960Z,1030.51
2017-03-29T08:38:08.961Z,1030.43
2017-03-29T08:39:08.963Z,1030.51
2017-03-29T08:40:08.964Z,1030.49
2017-03-29T08:41:08.969Z,1030.59
2017-03-29T08:42:08.968Z,1030.59
2017-03-29T08:43:08.971Z,1030.83
2017-03-29T08:44:08.971Z,1030.74
2017-03-29T08:45:08.970Z,1030.88
2017-03-29T08:46:08.972Z,1030.91
2017-03-29T08:47:08.974Z,1030.97
2017-03-29T08:48:08.975Z,1031
2017-03-29T08:49:08.975Z,1031.09
2017-03-29T08:50:08.977Z,1031.17
2017-03-29T08:51:08.982Z,1031.21
2017-03-29T08:52:08.977Z,1031.14
2017-03-29T08:53:08.979Z,1031.24
2017-03-29T08:54:08.979Z,1031.25
2017-03-29T08:55:08.979Z,1031.26
2017-03-29T08:56:08.979Z,1031.09
2017-03-29T08:57:08.979Z,1030.97
2017-03-29T08:58:08.979Z,1030.92
2017-03-29T08:59:08.980Z,1030.83
2017-03-29T09:00:08.979Z,1030.7
2017-03-29T09:01:08.980Z,1030.71
2017-03-29T09:02:08.980Z,1030.7
2017-03-29T09:03:08.980Z,1030.58
2017-03-29T09:04:08.980Z,1030.48
2017-03-29T09:05:08.980Z,1030.28
2017-03-29T09:06:08.982Z,1030.25
2017-03-29T09:07:08.981Z,1030.19
2017-03-29T09:08:08.981Z,1030.02
2017-03-29T09:09:08.982Z,1029.93
2017-03-29T09:10:08.982Z,1029.84
2017-03-29T09:11:08.983Z,1029.86
2017-03-29T09:12:08.983Z,1029.9
2017-03-29T09:13:08.984Z,1029.82
2017-03-29T09:14:08.985Z,1029.7
2017-03-29T09:15:08.986Z,1029.64
2017-03-29T09:16:08.987Z,1029.45
2017-03-29T09:17:08.989Z,1029.23
2017-03-29T09:18:08.989Z,1029.2
2017-03-29T09:19:08.990Z,1029.04
2017-03-29T09:20:08.992Z,1029.22
2017-03-29T09:21:08.993Z,1029.25
2017-03-29T09:22:08.995Z,1029.45
2017-03-29T09:23:08.996Z,1029.69
2017-03-29T09:24:08.998Z,1029.92
2017-03-29T09:25:09.000Z,1030.03
2017-03-29T09:26:09.001Z,1030.13
2017-03-29T09:27:09.003Z,1030.21
2017-03-29T09:28:09.005Z,1030.32
2017-03-29T09:29:09.007Z,1030.46
2017-03-29T09:30:09.008Z,1030.55
2017-03-29T09:31:09.010Z,1030.61
2017-03-29T09:32:09.012Z,1030.74
2017-03-29T09:33:09.012Z,1030.64
2017-03-29T09:34:09.015Z,1030.63
2017-03-29T09:35:09.016Z,1030.72
2017-03-29T09:36:09.016Z,1030.74
2017-03-29T09:37:09.018Z,1030.87
2017-03-29T09:38:09.020Z,1030.99
2017-03-29T09:39:09.021Z,1031
2017-03-29T09:40:09.022Z,1031.14
2017-03-29T09:41:09.022Z,1031.14
2017-03-29T09:42:09.023Z,1031.14
2017-03-29T09:43:09.024Z,1031.2
2017-03-29T09:44:09.024Z,1031.14
2017-03-29T09:45:09.026Z,1031.27
2017-03-29T09:46:09.027Z,1031.31
2017-03-29T09:47:09.026Z,1031.31
2017-03-29T09:48:09.026Z,1031.27
2017-03-29T09:49:09.028Z,1031.3
2017-03-29T09:50:09.029Z,1031.33
2017-03-29T09:51:09.029Z,1031.34
2017-03-29T09:52:09.029Z,1031.47
2017-03-29T09:53:09.030Z,1031.58
2017-03-29T09:54:09.029Z,1031.67
2017-03-29T09:55:09.030Z,1031.73
2017-03-29T09:56:09.029Z,1031.7
2017-03-29T09:57:09.030Z,1031.58
2017-03-29T09:58:09.029Z,1031.64
2017-03-29T09:59:09.029Z,1031.72
2017-03-29T10:00:09.030Z,1031.7
2017-03-29T10:01:09.031Z,1031.67
2017-03-29T10:02:09.030Z,1031.65
2017-03-29T10:03:09.029Z,1031.61
2017-03-29T10:04:09.031Z,1031.52
2017-03-29T10:05:09.028Z,1031.5
2017-03-29T10:06:09.029Z,1031.55
2017-03-29T10:07:09.028Z,1031.59
2017-03-29T10:08:09.029Z,1031.52
2017-03-29T10:09:09.030Z,1031.51
2017-03-29T10:10:09.032Z,1031.48
2017-03-29T10:11:09.031Z,1031.32
2017-03-29T10:12:09.027Z,1031.3
2017-03-29T10:13:09.026Z,1031.49
2017-03-29T10:14:09.026Z,1031.53
2017-03-29T10:15:09.026Z,1031.69
2017-03-29T10:16:09.026Z,1031.65
2017-03-29T10:17:09.026Z,1031.73
2017-03-29T10:18:09.026Z,1031.68
2017-03-29T10:19:09.026Z,1031.76
2017-03-29T10:20:09.024Z,1031.87
2017-03-29T10:21:09.025Z,1031.91
2017-03-29T10:22:09.025Z,1031.98
2017-03-29T10:23:09.024Z,1032.05
2017-03-29T10:24:09.024Z,1032.1
2017-03-29T10:25:09.024Z,1032.1
2017-03-29T10:26:09.023Z,1032.22
2017-03-29T10:27:09.022Z,1032.32
2017-03-29T10:28:09.025Z,1032.24
2017-03-29T10:29:09.021Z,1032.23
2017-03-29T10:30:09.020Z,1032.21
2017-03-29T10:31:09.021Z,1032.3
2017-03-29T10:32:09.019Z,1032.36
2017-03-29T10:33:09.020Z,1032.5
2017-03-29T10:34:09.016Z,1032.56
2017-03-29T10:35:09.015Z,1032.55
2017-03-29T10:36:09.014Z,1032.55
2017-03-29T10:37:09.012Z,1032.65
2017-03-29T10:38:09.011Z,1032.68
2017-03-29T10:39:09.010Z,1032.81
2017-03-29T10:40:09.009Z,1032.88
2017-03-29T10:41:09.007Z,1032.88
2017-03-29T10:42:09.005Z,1032.93
2017-03-29T10:43:09.003Z,1032.99
2017-03-29T10:44:09.001Z,1033
2017-03-29T10:45:09.002Z,1032.94
2017-03-29T10:46:08.999Z,1032.89
2017-03-29T10:47:08.996Z,1033
2017-03-29T10:48:08.995Z,1033.05
2017-03-29T10:49:08.993Z,1033.05
2017-03-29T10:50:08.991Z,1033.12
2017-03-29T10:51:08.989Z,1032.97
2017-03-29T10:52:08.987Z,1032.96
2017-03-29T10:53:08.984Z,1033.04
2017-03-29T10:54:08.983Z,1033.04
2017-03-29T10:55:08.981Z,1033.08
2017-03-29T10:56:08.978Z,1033.14
2017-03-29T10:57:08.975Z,1033.2
2017-03-29T10:58:08.973Z,1033.26
2017-03-29T10:59:08.971Z,1033.28
2017-03-29T11:00:08.972Z,1033.37
2017-03-29T11:01:08.966Z,1033.25
2017-03-29T11:02:08.965Z,1033.33
2017-03-29T11:03:08.964Z,1033.35
2017-03-29T11:04:08.958Z,1033.33
2017-03-29T11:05:08.958Z,1033.27
2017-03-29T11:06:08.954Z,1033.22
2017-03-29T11:07:08.951Z,1033.26
2017-03-29T11:08:08.948Z,1033.26
2017-03-29T11:09:08.946Z,1033.2
2017-03-29T11:10:08.943Z,1033.2
2017-03-29T11:11:08.941Z,1033.07
2017-03-29T11:12:08.938Z,1032.92
2017-03-29T11:13:08.935Z,1033.02
2017-03-29T11:14:08.933Z,1033.03
2017-03-29T11:15:08.930Z,1033.1
2017-03-29T11:16:08.928Z,1033.18
2017-03-29T11:17:08.927Z,1033.28
2017-03-29T11:18:08.924Z,1033.35
2017-03-29T11:19:08.920Z,1033.43
2017-03-29T11:20:08.918Z,1033.52
2017-03-29T11:21:08.917Z,1033.67
2017-03-29T11:22:08.913Z,1033.69
2017-03-29T11:23:08.910Z,1033.76
2017-03-29T11:24:08.907Z,1033.74
2017-03-29T11:25:08.910Z,1033.71
2017-03-29T11:26:08.901Z,1033.64
2017-03-29T11:27:08.898Z,1033.59
2017-03-29T11:28:08.896Z,1033.48
2017-03-29T11:29:08.893Z,1033.22
2017-03-29T11:30:08.890Z,1033.04
2017-03-29T11:31:08.887Z,1032.87
2017-03-29T11:32:08.885Z,1032.84
2017-03-29T11:33:08.881Z,1032.74
2017-03-29T11:34:08.882Z,1032.91
2017-03-29T11:35:08.877Z,1032.93
2017-03-29T11:36:08.874Z,1033.14
2017-03-29T11:37:08.870Z,1033.26
2017-03-29T11:38:08.868Z,1033.37
2017-03-29T11:39:08.866Z,1033.43
2017-03-29T11:40:08.863Z,1033.51
2017-03-29T11:41:08.860Z,1033.45
2017-03-29T11:42:08.857Z,1033.56
2017-03-29T11:43:08.855Z,1033.53
2017-03-29T11:44:08.852Z,1033.58
2017-03-29T11:45:08.849Z,1033.6
2017-03-29T11:46:08.847Z,1033.58
2017-03-29T11:47:08.845Z,1033.58
2017-03-29T11:48:08.848Z,1033.55
2017-03-29T11:49:08.839Z,1033.48
2017-03-29T11:50:08.836Z,1033.41
2017-03-29T11:51:08.833Z,1033.41
2017-03-29T11:52:08.830Z,1033.27
2017-03-29T11:53:08.827Z,1033.12
2017-03-29T11:54:08.826Z,1033.09
2017-03-29T11:55:08.822Z,1033.03
2017-03-29T11:56:08.819Z,1032.96
2017-03-29T11:57:08.817Z,1032.9
2017-03-29T11:58:08.815Z,1032.91
2017-03-29T11:59:08.816Z,1032.94
2017-03-29T12:00:08.810Z,1032.99
2017-03-29T12:01:08.807Z,1032.96
2017-03-29T12:02:08.805Z,1033.19
2017-03-29T12:03:08.802Z,1033.27
2017-03-29T12:04:08.799Z,1033.35
2017-03-29T12:05:08.798Z,1033.52
2017-03-29T12:06:08.793Z,1033.62
2017-03-29T12:07:08.792Z,1033.73
2017-03-29T12:08:08.795Z,1033.83
2017-03-29T12:09:08.786Z,1033.98